createdAt,value
2023-05-05T00:01:02.301Z,10.76
2023-05-05T00:03:30.115Z,10.78
2023-05-05T00:05:57.644Z,10.80
2023-05-05T00:08:24.712Z,10.81
2023-05-05T00:10:53.003Z,10.80
2023-05-05T00:13:21.225Z,10.83
2023-05-05T00:15:50.405Z,10.89
2023-05-05T00:18:18.578Z,10.90
2023-05-05T00:20:49.310Z,10.92
2023-05-05T00:23:16.814Z,10.97
2023-05-05T00:25:43.940Z,11.02
2023-05-05T00:28:11.044Z,11.02
2023-05-05T00:30:40.076Z,11.10
2023-05-05T00:33:07.127Z,11.14
2023-05-05T00:35:34.755Z,11.15
2023-05-05T00:38:01.835Z,11.18
2023-05-05T00:40:28.819Z,11.19
2023-05-05T00:42:55.874Z,11.20
2023-05-05T00:45:22.703Z,11.22
2023-05-05T00:47:53.617Z,11.23
2023-05-05T00:50:25.782Z,11.23
2023-05-05T00:52:55.020Z,11.26
2023-05-05T00:55:22.171Z,11.27
2023-05-05T00:57:49.627Z,11.24
2023-05-05T01:00:18.181Z,11.27
2023-05-05T01:02:45.521Z,11.26
2023-05-05T01:05:14.491Z,11.24
2023-05-05T01:08:16.245Z,11.21
2023-05-05T01:10:53.455Z,11.16
2023-05-05T01:13:35.660Z,11.12
2023-05-05T01:16:27.013Z,11.04
2023-05-05T01:19:14.926Z,11.00
2023-05-05T01:21:48.582Z,10.99
2023-05-05T01:24:53.063Z,10.97
2023-05-05T01:27:28.534Z,10.91
2023-05-05T01:30:28.833Z,10.87
2023-05-05T01:33:02.826Z,10.87
2023-05-05T01:35:47.286Z,10.94
2023-05-05T01:38:19.415Z,10.98
2023-05-05T01:40:59.950Z,11.05
2023-05-05T01:43:33.927Z,11.09
2023-05-05T01:46:02.629Z,11.10
2023-05-05T01:48:31.113Z,11.14
2023-05-05T01:51:03.249Z,11.11
2023-05-05T01:53:31.453Z,11.13
2023-05-05T01:55:59.848Z,11.14
2023-05-05T01:58:29.486Z,11.16
2023-05-05T02:00:57.672Z,11.16
2023-05-05T02:03:26.905Z,11.17
2023-05-05T02:05:55.495Z,11.13
2023-05-05T02:08:26.049Z,11.16
2023-05-05T02:10:54.900Z,11.16
2023-05-05T02:13:24.854Z,11.11
2023-05-05T02:15:52.170Z,11.05
2023-05-05T02:18:20.155Z,11.00
2023-05-05T02:20:47.540Z,10.97
2023-05-05T02:23:14.583Z,10.95
2023-05-05T02:25:49.239Z,10.93
2023-05-05T02:28:21.524Z,10.94
2023-05-05T02:31:00.381Z,10.92
2023-05-05T02:33:32.654Z,10.94
2023-05-05T02:36:09.433Z,10.96
2023-05-05T02:38:41.761Z,10.91
2023-05-05T02:41:13.683Z,10.88
2023-05-05T02:43:43.369Z,10.84
2023-05-05T02:46:11.415Z,10.82
2023-05-05T02:48:40.980Z,10.78
2023-05-05T02:51:08.186Z,10.75
2023-05-05T02:53:37.403Z,10.68
2023-05-05T02:56:30.554Z,10.65
2023-05-05T02:59:31.169Z,10.63
2023-05-05T03:02:03.572Z,10.58
2023-05-05T03:04:40.021Z,10.55
2023-05-05T03:07:12.544Z,10.51
2023-05-05T03:09:46.081Z,10.59
2023-05-05T03:12:19.320Z,10.65
2023-05-05T03:14:58.772Z,10.70
2023-05-05T03:17:31.120Z,10.75
2023-05-05T03:20:02.272Z,10.79
2023-05-05T03:22:37.040Z,10.81
2023-05-05T03:25:06.393Z,10.83
2023-05-05T03:27:33.247Z,10.90
2023-05-05T03:30:00.781Z,10.97
2023-05-05T03:32:27.814Z,10.95
2023-05-05T03:34:55.728Z,10.98
2023-05-05T03:37:28.423Z,10.98
2023-05-05T03:39:57.380Z,11.01
2023-05-05T03:42:24.245Z,11.02
2023-05-05T03:44:53.781Z,11.05
2023-05-05T03:47:24.694Z,11.06
2023-05-05T03:49:53.042Z,11.14
2023-05-05T03:52:20.063Z,11.19
2023-05-05T03:54:47.014Z,11.17
2023-05-05T03:57:13.936Z,11.11
2023-05-05T03:59:41.465Z,11.07
2023-05-05T04:02:09.227Z,11.04
2023-05-05T04:04:36.410Z,11.00
2023-05-05T04:07:03.388Z,10.89
2023-05-05T04:09:30.601Z,10.83
2023-05-05T04:11:57.594Z,10.78
2023-05-05T04:14:25.820Z,10.76
2023-05-05T04:16:53.442Z,10.75
2023-05-05T04:19:21.158Z,10.59
2023-05-05T04:21:49.376Z,10.53
2023-05-05T04:24:16.315Z,10.47
2023-05-05T04:26:43.162Z,10.48
2023-05-05T04:29:10.997Z,10.49
2023-05-05T04:31:38.040Z,10.40
2023-05-05T04:34:05.132Z,10.37
2023-05-05T04:36:32.252Z,10.34
2023-05-05T04:38:59.804Z,10.31
2023-05-05T04:41:29.898Z,10.30
2023-05-05T04:43:58.167Z,10.31
2023-05-05T04:46:26.347Z,10.30
2023-05-05T04:48:53.313Z,10.30
2023-05-05T04:51:20.478Z,10.27
2023-05-05T04:53:47.514Z,10.26
2023-05-05T04:56:14.381Z,10.29
2023-05-05T04:58:41.474Z,10.30
2023-05-05T05:01:08.390Z,10.32
2023-05-05T05:03:35.402Z,10.31
2023-05-05T05:06:02.498Z,10.29
2023-05-05T05:08:29.707Z,10.26
2023-05-05T05:10:56.545Z,10.25
2023-05-05T05:13:23.431Z,10.21
2023-05-05T05:15:51.160Z,10.19
2023-05-05T05:18:18.410Z,10.29
2023-05-05T05:20:46.024Z,10.38
2023-05-05T05:23:14.082Z,10.51
2023-05-05T05:25:43.848Z,10.74
2023-05-05T05:28:12.095Z,10.96
2023-05-05T05:30:45.304Z,11.14
2023-05-05T05:33:12.366Z,11.23
2023-05-05T05:35:40.218Z,11.28
2023-05-05T05:38:07.662Z,11.31
2023-05-05T05:40:34.610Z,11.35
2023-05-05T05:43:03.013Z,11.32
2023-05-05T05:45:31.723Z,11.30
2023-05-05T05:47:58.830Z,11.23
2023-05-05T05:50:28.569Z,11.14
2023-05-05T05:52:56.878Z,11.04
2023-05-05T05:55:24.388Z,11.00
2023-05-05T05:57:52.209Z,10.95
2023-05-05T06:00:20.506Z,10.94
2023-05-05T06:02:54.862Z,10.95
2023-05-05T06:05:25.641Z,11.03
2023-05-05T06:07:52.812Z,11.12
2023-05-05T06:12:54.577Z,11.21
2023-05-05T06:15:21.677Z,11.19
2023-05-05T06:17:48.793Z,11.27
2023-05-05T06:20:15.971Z,11.21
2023-05-05T06:22:43.125Z,11.13
2023-05-05T06:25:11.053Z,11.13
2023-05-05T06:27:38.414Z,11.20
2023-05-05T06:30:06.841Z,11.27
2023-05-05T06:32:33.893Z,11.41
2023-05-05T06:35:01.339Z,11.52
2023-05-05T06:37:28.359Z,11.56
2023-05-05T06:39:55.215Z,11.66
2023-05-05T06:42:22.218Z,11.71
2023-05-05T06:44:49.204Z,11.81
2023-05-05T06:47:16.223Z,11.90
2023-05-05T06:49:43.378Z,11.94
2023-05-05T06:52:10.263Z,12.03
2023-05-05T06:54:37.600Z,12.11
2023-05-05T06:57:04.940Z,12.20
2023-05-05T06:59:32.688Z,12.25
2023-05-05T07:01:59.936Z,12.33
2023-05-05T07:04:27.001Z,12.46
2023-05-05T07:06:55.293Z,12.55
2023-05-05T07:09:22.184Z,12.66
2023-05-05T07:11:49.191Z,12.77
2023-05-05T07:14:16.094Z,12.86
2023-05-05T07:16:42.940Z,12.96
2023-05-05T07:19:10.108Z,13.04
2023-05-05T07:21:37.742Z,13.07
2023-05-05T07:24:05.503Z,13.16
2023-05-05T07:26:33.039Z,13.25
2023-05-05T07:29:00.140Z,13.44
2023-05-05T07:31:27.060Z,13.71
2023-05-05T07:33:54.168Z,13.90
2023-05-05T07:36:21.292Z,13.92
2023-05-05T07:38:48.135Z,14.09
2023-05-05T07:41:16.334Z,14.19
2023-05-05T07:43:44.692Z,14.28
2023-05-05T07:46:12.182Z,14.40
2023-05-05T07:48:41.825Z,14.62
2023-05-05T07:51:09.368Z,14.85
2023-05-05T07:53:37.037Z,15.03
2023-05-05T07:56:04.177Z,15.14
2023-05-05T07:58:31.132Z,15.17
2023-05-05T08:00:58.041Z,15.27
2023-05-05T08:03:25.314Z,15.47
2023-05-05T08:05:54.645Z,15.65
2023-05-05T08:08:24.916Z,15.78
2023-05-05T08:10:53.507Z,15.88
2023-05-05T08:13:20.575Z,15.92
2023-05-05T08:15:47.806Z,15.86
2023-05-05T08:18:15.154Z,15.98
2023-05-05T08:20:42.074Z,16.39
2023-05-05T08:23:08.938Z,16.75
2023-05-05T08:25:36.210Z,17.02
2023-05-05T08:28:03.378Z,17.26
2023-05-05T08:30:30.943Z,17.29
2023-05-05T08:32:57.973Z,17.39
2023-05-05T08:35:24.968Z,17.34
2023-05-05T08:37:52.052Z,17.68
2023-05-05T08:40:21.442Z,17.78
2023-05-05T08:42:48.459Z,17.74
2023-05-05T08:45:16.017Z,17.49
2023-05-05T08:47:43.690Z,17.39
2023-05-05T08:50:11.576Z,17.39
2023-05-05T08:52:46.894Z,17.43
2023-05-05T08:55:24.449Z,17.53
2023-05-05T08:57:54.669Z,17.65
2023-05-05T09:00:22.516Z,17.69
2023-05-05T09:02:50.181Z,17.85
2023-05-05T09:05:17.844Z,17.85
2023-05-05T09:07:45.245Z,18.00
2023-05-05T09:10:12.678Z,18.19
2023-05-05T09:12:43.154Z,18.39
2023-05-05T09:15:14.682Z,18.60
2023-05-05T09:17:42.319Z,18.73
2023-05-05T09:20:15.107Z,19.15
2023-05-05T09:22:44.721Z,19.41
2023-05-05T09:25:13.960Z,19.18
2023-05-05T09:27:43.406Z,19.06
2023-05-05T09:30:15.062Z,18.99
2023-05-05T09:32:46.607Z,19.27
2023-05-05T09:35:14.026Z,19.38
2023-05-05T09:37:41.168Z,19.59
2023-05-05T09:40:09.529Z,19.65
2023-05-05T09:42:40.816Z,19.82
2023-05-05T09:45:20.179Z,19.76
2023-05-05T09:47:48.110Z,19.80
2023-05-05T09:50:19.048Z,19.80
2023-05-05T09:52:56.604Z,19.90
2023-05-05T09:55:24.712Z,20.17
2023-05-05T09:57:51.858Z,20.32
2023-05-05T10:00:19.701Z,20.26
2023-05-05T10:02:46.905Z,20.34
2023-05-05T10:05:18.720Z,20.32
2023-05-05T10:07:47.585Z,20.18
2023-05-05T10:10:17.183Z,20.10
2023-05-05T10:12:47.446Z,20.38
2023-05-05T10:15:16.073Z,20.74
2023-05-05T10:18:05.938Z,20.79
2023-05-05T10:20:36.632Z,20.50
2023-05-05T10:23:08.204Z,20.62
2023-05-05T10:25:42.446Z,20.83
2023-05-05T10:28:16.697Z,20.93
2023-05-05T10:30:46.246Z,21.02
2023-05-05T10:33:31.551Z,20.60
2023-05-05T10:36:02.482Z,20.62
2023-05-05T10:38:34.283Z,20.78
2023-05-05T10:41:04.772Z,20.42
2023-05-05T10:43:32.093Z,20.49
2023-05-05T10:46:00.230Z,20.15
2023-05-05T10:48:47.270Z,20.21
2023-05-05T10:51:49.818Z,20.34
2023-05-05T10:54:38.336Z,20.54
2023-05-05T10:57:09.930Z,21.06
2023-05-05T10:59:37.085Z,21.31
2023-05-05T11:02:24.225Z,21.46
2023-05-05T11:05:13.632Z,21.18
2023-05-05T11:07:44.798Z,21.08
2023-05-05T11:10:14.330Z,21.23
2023-05-05T11:13:10.804Z,21.27
2023-05-05T11:15:38.442Z,21.16
2023-05-05T11:18:07.874Z,21.24
2023-05-05T11:20:35.937Z,21.28
2023-05-05T11:23:03.244Z,21.38
2023-05-05T11:25:41.053Z,21.42
2023-05-05T11:28:11.559Z,21.29
2023-05-05T11:30:57.518Z,21.30
2023-05-05T11:33:39.076Z,21.13
2023-05-05T11:36:10.367Z,21.17
2023-05-05T11:39:10.201Z,20.95
2023-05-05T11:41:59.502Z,20.65
2023-05-05T11:44:31.789Z,20.42
2023-05-05T11:47:02.806Z,20.46
2023-05-05T11:49:31.354Z,20.34
2023-05-05T11:52:01.418Z,20.13
2023-05-05T11:54:29.142Z,20.05
2023-05-05T11:57:07.292Z,20.18
2023-05-05T11:59:49.767Z,20.26
2023-05-05T12:02:18.061Z,20.12
2023-05-05T12:04:45.610Z,20.06
2023-05-05T12:07:19.806Z,19.92
2023-05-05T12:09:48.190Z,19.82
2023-05-05T12:12:16.114Z,19.68
2023-05-05T12:14:52.535Z,19.63
2023-05-05T12:17:21.537Z,19.72
2023-05-05T12:19:53.830Z,19.72
2023-05-05T12:22:22.977Z,19.75
2023-05-05T12:25:08.977Z,19.76
2023-05-05T12:27:36.265Z,19.93
2023-05-05T12:30:15.275Z,19.92
2023-05-05T12:32:42.328Z,19.98
2023-05-05T12:35:10.170Z,19.97
2023-05-05T12:37:38.124Z,19.95
2023-05-05T12:40:06.692Z,19.87
2023-05-05T12:42:39.032Z,19.66
2023-05-05T12:45:16.063Z,19.43
2023-05-05T12:47:44.756Z,19.18
2023-05-05T12:50:11.797Z,18.96
2023-05-05T12:52:43.771Z,19.08
2023-05-05T12:55:11.587Z,19.27
2023-05-05T12:57:58.779Z,19.31
2023-05-05T13:00:27.469Z,19.37
2023-05-05T13:02:54.375Z,19.45
2023-05-05T13:05:36.344Z,19.49
2023-05-05T13:08:03.419Z,19.51
2023-05-05T13:10:31.472Z,19.45
2023-05-05T13:12:58.758Z,19.49
2023-05-05T13:15:26.222Z,19.40
2023-05-05T13:18:03.027Z,19.29
2023-05-05T13:20:30.119Z,19.06
2023-05-05T13:22:57.427Z,18.90
2023-05-05T13:25:24.453Z,18.64
2023-05-05T13:27:51.383Z,18.44
2023-05-05T13:30:18.238Z,18.26
2023-05-05T13:32:45.513Z,18.07
2023-05-05T13:35:15.971Z,17.98
2023-05-05T13:37:44.389Z,17.76
2023-05-05T13:40:13.353Z,17.63
2023-05-05T13:42:40.577Z,17.22
2023-05-05T13:45:08.105Z,16.84
2023-05-05T13:47:35.635Z,16.64
2023-05-05T13:50:03.055Z,16.53
2023-05-05T13:52:32.150Z,16.50
2023-05-05T13:55:01.058Z,16.49
2023-05-05T13:57:28.240Z,16.45
2023-05-05T13:59:55.211Z,16.42
2023-05-05T14:02:22.473Z,16.42
2023-05-05T14:04:50.181Z,16.34
2023-05-05T14:07:17.281Z,16.32
2023-05-05T14:09:44.234Z,16.28
2023-05-05T14:12:11.229Z,16.14
2023-05-05T14:14:38.066Z,16.13
2023-05-05T14:17:05.057Z,15.99
2023-05-05T14:19:32.484Z,15.88
2023-05-05T14:21:59.877Z,15.93
2023-05-05T14:24:27.373Z,15.98
2023-05-05T14:26:54.508Z,15.94
2023-05-05T14:29:22.165Z,15.96
2023-05-05T14:31:49.032Z,15.81
2023-05-05T14:34:16.226Z,15.78
2023-05-05T14:36:43.266Z,15.67
2023-05-05T14:39:10.312Z,15.60
2023-05-05T14:41:37.391Z,15.55
2023-05-05T14:44:04.400Z,15.49
2023-05-05T14:46:32.404Z,15.47
2023-05-05T14:49:00.147Z,15.40
2023-05-05T14:51:27.116Z,15.40
2023-05-05T14:53:54.363Z,15.37
2023-05-05T14:56:22.934Z,15.33
2023-05-05T14:58:50.344Z,15.35
2023-05-05T15:01:17.530Z,15.23
2023-05-05T15:03:44.801Z,15.17
2023-05-05T15:06:12.493Z,15.12
2023-05-05T15:08:39.566Z,15.07
2023-05-05T15:11:06.836Z,15.11
2023-05-05T15:13:33.842Z,15.05
2023-05-05T15:16:01.640Z,15.02
2023-05-05T15:18:29.844Z,14.99
2023-05-05T15:20:58.112Z,14.88
2023-05-05T15:23:25.056Z,14.85
2023-05-05T15:25:51.937Z,14.83
2023-05-05T15:28:19.174Z,14.82
2023-05-05T15:30:46.159Z,14.75
2023-05-05T15:33:13.065Z,14.69
2023-05-05T15:35:40.017Z,14.61
2023-05-05T15:38:07.538Z,14.60
2023-05-05T15:40:34.755Z,14.66
2023-05-05T15:43:01.752Z,14.68
2023-05-05T15:45:28.676Z,14.59
2023-05-05T15:47:56.437Z,14.59
2023-05-05T15:50:24.067Z,14.64
2023-05-05T15:52:51.060Z,14.68
2023-05-05T15:55:17.950Z,14.74
2023-05-05T15:57:44.929Z,14.77
2023-05-05T16:00:12.532Z,14.77
2023-05-05T16:02:39.964Z,14.82
2023-05-05T16:05:07.478Z,14.74
2023-05-05T16:07:34.696Z,14.64
2023-05-05T16:10:01.896Z,14.65
2023-05-05T16:12:29.055Z,14.82
2023-05-05T16:14:58.057Z,15.00
2023-05-05T16:17:25.112Z,15.03
2023-05-05T16:19:52.100Z,15.06
2023-05-05T16:22:20.954Z,15.10
2023-05-05T16:24:48.892Z,15.26
2023-05-05T16:27:16.520Z,15.27
2023-05-05T16:29:43.410Z,15.18
2023-05-05T16:32:10.443Z,15.01
2023-05-05T16:34:37.318Z,15.01
2023-05-05T16:37:04.335Z,15.13
2023-05-05T16:39:33.084Z,15.19
2023-05-05T16:41:59.978Z,15.20
2023-05-05T16:44:26.821Z,15.25
2023-05-05T16:46:53.607Z,15.16
2023-05-05T16:49:20.646Z,15.12
2023-05-05T16:51:47.508Z,15.23
2023-05-05T16:54:14.395Z,15.29
2023-05-05T16:56:42.172Z,15.20
2023-05-05T16:59:09.418Z,15.14
2023-05-05T17:01:38.261Z,15.20
2023-05-05T17:04:05.386Z,15.28
2023-05-05T17:06:33.055Z,15.30
2023-05-05T17:09:00.948Z,15.34
2023-05-05T17:11:28.023Z,15.36
2023-05-05T17:13:55.407Z,15.48
2023-05-05T17:16:22.883Z,15.85
2023-05-05T17:18:50.195Z,16.21
2023-05-05T17:21:17.504Z,16.44
2023-05-05T17:23:44.902Z,16.53
2023-05-05T17:26:12.286Z,16.56
2023-05-05T17:28:39.664Z,16.37
2023-05-05T17:31:07.658Z,16.21
2023-05-05T17:33:35.025Z,16.05
2023-05-05T17:36:02.188Z,15.79
2023-05-05T17:38:29.644Z,15.48
2023-05-05T17:40:56.663Z,15.31
2023-05-05T17:43:23.569Z,15.24
2023-05-05T17:45:50.534Z,15.16
2023-05-05T17:48:17.495Z,15.08
2023-05-05T17:50:44.966Z,15.10
2023-05-05T17:53:12.476Z,15.09
2023-05-05T17:55:39.337Z,15.05
2023-05-05T17:58:06.306Z,15.00
2023-05-05T18:00:33.214Z,14.95
2023-05-05T18:03:01.342Z,14.81
2023-05-05T18:05:28.350Z,14.69
2023-05-05T18:07:55.361Z,14.76
2023-05-05T18:10:22.408Z,14.75
2023-05-05T18:12:49.659Z,14.79
2023-05-05T18:15:16.609Z,14.81
2023-05-05T18:17:44.322Z,14.88
2023-05-05T18:20:11.677Z,14.89
2023-05-05T18:22:38.563Z,14.76
2023-05-05T18:25:07.962Z,14.67
2023-05-05T18:27:36.168Z,14.55
2023-05-05T18:30:04.831Z,14.42
2023-05-05T18:32:32.179Z,14.30
2023-05-05T18:34:59.706Z,14.20
2023-05-05T18:37:27.920Z,14.09
2023-05-05T18:39:54.918Z,14.02
2023-05-05T18:42:22.686Z,13.99
2023-05-05T18:44:49.633Z,13.97
2023-05-05T18:47:17.168Z,13.90
2023-05-05T18:49:45.476Z,13.83
2023-05-05T18:52:12.310Z,13.80
2023-05-05T18:54:39.316Z,13.80
2023-05-05T18:57:06.130Z,13.86
2023-05-05T18:59:32.982Z,13.91
2023-05-05T19:02:00.047Z,13.92
2023-05-05T19:04:31.359Z,13.92
2023-05-05T19:06:59.989Z,13.98
2023-05-05T19:09:28.037Z,14.01
2023-05-05T19:11:55.012Z,14.01
2023-05-05T19:14:22.875Z,14.03
2023-05-05T19:16:50.289Z,14.08
2023-05-05T19:19:17.537Z,14.07
2023-05-05T19:21:44.634Z,14.02
2023-05-05T19:24:11.952Z,13.97
2023-05-05T19:26:39.089Z,13.97
2023-05-05T19:29:06.481Z,13.95
2023-05-05T19:31:33.558Z,13.95
2023-05-05T19:34:03.094Z,13.93
2023-05-05T19:36:33.568Z,13.91
2023-05-05T19:39:02.506Z,13.89
2023-05-05T19:41:31.030Z,13.88
2023-05-05T19:43:58.042Z,13.89
2023-05-05T19:46:26.923Z,13.93
2023-05-05T19:48:53.878Z,13.95
2023-05-05T19:51:20.795Z,13.95
2023-05-05T19:53:47.824Z,13.97
2023-05-05T19:56:14.722Z,14.00
2023-05-05T19:59:00.822Z,13.98
2023-05-05T20:01:29.797Z,13.93
2023-05-05T20:03:57.496Z,13.89
2023-05-05T20:06:24.825Z,13.84
2023-05-05T20:08:52.330Z,13.78
2023-05-05T20:11:20.162Z,13.74
2023-05-05T20:13:47.678Z,13.74
2023-05-05T20:16:15.148Z,13.75
2023-05-05T20:18:42.365Z,13.78
2023-05-05T20:21:09.590Z,13.74
2023-05-05T20:23:37.130Z,13.78
2023-05-05T20:26:04.069Z,13.77
2023-05-05T20:28:32.002Z,13.76
2023-05-05T20:31:00.885Z,13.74
2023-05-05T20:33:28.974Z,13.70
2023-05-05T20:35:56.806Z,13.67
2023-05-05T20:38:23.919Z,13.64
2023-05-05T20:40:52.166Z,13.63
2023-05-05T20:43:19.698Z,13.58
2023-05-05T20:45:46.699Z,13.54
2023-05-05T20:48:13.764Z,13.50
2023-05-05T20:50:42.336Z,13.46
2023-05-05T20:53:11.051Z,13.39
2023-05-05T20:55:37.958Z,13.34
2023-05-05T20:58:06.890Z,13.32
2023-05-05T21:00:33.959Z,13.36
2023-05-05T21:03:02.847Z,13.39
2023-05-05T21:05:31.747Z,13.43
2023-05-05T21:08:00.892Z,13.47
2023-05-05T21:10:33.217Z,13.49
2023-05-05T21:13:02.421Z,13.45
2023-05-05T21:15:29.758Z,13.44
2023-05-05T21:17:57.141Z,13.39
2023-05-05T21:20:24.485Z,13.33
2023-05-05T21:22:51.714Z,13.23
2023-05-05T21:25:21.055Z,13.16
2023-05-05T21:27:49.052Z,13.05
2023-05-05T21:30:16.972Z,12.94
2023-05-05T21:32:44.633Z,12.85
2023-05-05T21:35:12.252Z,12.77
2023-05-05T21:37:39.965Z,12.69
2023-05-05T21:40:13.942Z,12.61
2023-05-05T21:42:41.539Z,12.51
2023-05-05T21:45:09.291Z,12.48
2023-05-05T21:47:36.474Z,12.43
2023-05-05T21:50:03.481Z,12.39
2023-05-05T21:52:30.776Z,12.34
2023-05-05T21:54:57.840Z,12.32
2023-05-05T21:57:24.965Z,12.30
2023-05-05T21:59:51.903Z,12.24
2023-05-05T22:02:18.867Z,12.18
2023-05-05T22:04:48.511Z,12.09
2023-05-05T22:07:15.474Z,12.03
2023-05-05T22:09:43.254Z,11.97
2023-05-05T22:12:10.151Z,11.94
2023-05-05T22:14:37.366Z,11.90
2023-05-05T22:17:04.425Z,11.91
2023-05-05T22:19:31.577Z,11.88
2023-05-05T22:21:58.963Z,11.87
2023-05-05T22:24:25.959Z,11.82
2023-05-05T22:26:53.659Z,11.76
2023-05-05T22:29:20.487Z,11.72
2023-05-05T22:31:47.636Z,11.68
2023-05-05T22:34:15.234Z,11.65
2023-05-05T22:36:42.311Z,11.59
2023-05-05T22:39:09.442Z,11.55
2023-05-05T22:41:36.613Z,11.53
2023-05-05T22:44:04.503Z,11.50
2023-05-05T22:46:32.180Z,11.51
2023-05-05T22:48:59.086Z,11.57
2023-05-05T22:51:27.812Z,11.68
2023-05-05T22:53:54.786Z,11.81
2023-05-05T22:56:21.743Z,11.93
2023-05-05T22:58:48.913Z,12.03
2023-05-05T23:01:16.131Z,12.07
2023-05-05T23:03:43.076Z,12.04
2023-05-05T23:06:10.076Z,11.99
2023-05-05T23:08:36.985Z,12.03
2023-05-05T23:11:04.042Z,12.08
2023-05-05T23:13:31.304Z,12.15
2023-05-05T23:15:58.244Z,12.21
2023-05-05T23:18:25.128Z,12.30
2023-05-05T23:20:52.117Z,12.37
2023-05-05T23:23:19.145Z,12.44
2023-05-05T23:25:46.099Z,12.50
2023-05-05T23:28:13.013Z,12.50
2023-05-05T23:30:40.011Z,12.53
2023-05-05T23:33:07.006Z,12.49
2023-05-05T23:35:34.248Z,12.45
2023-05-05T23:38:02.116Z,12.42
2023-05-05T23:40:29.224Z,12.32
2023-05-05T23:42:57.547Z,12.22
2023-05-05T23:45:24.875Z,12.10
2023-05-05T23:47:52.809Z,12.01
2023-05-05T23:50:20.247Z,11.92
2023-05-05T23:52:47.353Z,11.84
2023-05-05T23:55:14.578Z,11.77
2023-05-05T23:57:41.475Z,11.69
